Time;durP1;ratioP1;P1;durP2;ratioP2;P2;SDS_P1;SDS_P2;PMS_P1;PMS_P2;Temp;Humidity;BMP_temperature;BMP_pressure;BME280_temperature;BME280_humidity;BME280_pressure;Samples;Min_cycle;Max_cycle;Signal;HPM_P1;HPM_P2
2021/05/11 00:01:12;;;;;;;9.90;5.50;;;17.30;86.80;;;;;;5086174;28;20275;-70
2021/05/11 00:03:39;;;;;;;9.17;4.93;;;17.30;86.80;;;;;;5083275;28;20206;-70
2021/05/11 00:06:05;;;;;;;12.60;5.57;;;17.30;86.80;;;;;;5087753;28;20219;-70
2021/05/11 00:08:32;;;;;;;14.30;5.47;;;17.30;86.80;;;;;;5083200;28;20204;-70
2021/05/11 00:10:59;;;;;;;12.40;5.70;;;17.30;86.80;;;;;;5082973;28;20267;-70
2021/05/11 00:13:25;;;;;;;9.00;4.80;;;17.30;86.80;;;;;;5082550;28;20217;-70
2021/05/11 00:15:52;;;;;;;10.23;4.47;;;17.30;86.80;;;;;;5082673;28;20241;-71
2021/05/11 00:18:19;;;;;;;12.00;5.07;;;17.30;86.80;;;;;;5078637;28;20217;-71
2021/05/11 00:20:46;;;;;;;8.63;4.77;;;17.30;87.10;;;;;;5091190;28;20258;-71
2021/05/11 00:23:13;;;;;;;11.93;4.67;;;17.30;86.80;;;;;;5078770;28;20241;-71
2021/05/11 00:25:40;;;;;;;13.67;5.10;;;17.30;86.90;;;;;;5077600;28;20217;-71
2021/05/11 00:28:06;;;;;;;11.00;5.40;;;17.30;86.90;;;;;;5086608;28;20644;-71
2021/05/11 00:30:33;;;;;;;6.73;5.07;;;17.30;86.90;;;;;;5082933;28;20238;-71
2021/05/11 00:33:00;;;;;;;8.53;4.40;;;17.20;87.60;;;;;;5086046;28;20236;-71
2021/05/11 00:35:26;;;;;;;8.50;4.93;;;17.20;87.20;;;;;;5081788;28;20283;-71
2021/05/11 00:37:53;;;;;;;10.47;4.80;;;17.20;87.20;;;;;;5082606;28;20300;-71
2021/05/11 00:40:20;;;;;;;10.17;4.57;;;17.20;87.10;;;;;;5084909;28;20209;-71
2021/05/11 00:42:46;;;;;;;12.97;5.23;;;17.20;87.20;;;;;;5081673;28;20214;-71
2021/05/11 00:45:13;;;;;;;13.40;6.27;;;17.20;87.20;;;;;;5082560;28;20231;-71
2021/05/11 00:47:42;;;;;;;11.60;4.63;;;17.20;87.20;;;;;;5083097;28;20519;-71
2021/05/11 00:50:10;;;;;;;12.37;4.87;;;17.20;87.20;;;;;;5084155;28;20221;-71
2021/05/11 00:52:37;;;;;;;10.37;4.83;;;17.20;87.20;;;;;;5081068;28;20220;-71
2021/05/11 00:55:05;;;;;;;10.60;4.63;;;17.20;87.20;;;;;;5084908;28;20678;-71
2021/05/11 00:57:33;;;;;;;9.70;5.03;;;17.20;87.20;;;;;;5085448;28;20243;-71
2021/05/11 01:00:01;;;;;;;7.07;5.40;;;17.20;87.80;;;;;;5082463;28;20214;-71
2021/05/11 01:02:28;;;;;;;11.53;5.73;;;17.20;87.20;;;;;;5084939;28;20209;-71
2021/05/11 01:04:56;;;;;;;7.23;4.37;;;17.30;87.30;;;;;;5084584;28;20209;-71
2021/05/11 01:07:23;;;;;;;11.30;4.97;;;17.30;87.40;;;;;;5083757;28;20220;-71
2021/05/11 01:09:50;;;;;;;13.80;4.63;;;17.20;87.40;;;;;;5081931;28;20253;-71
2021/05/11 01:12:16;;;;;;;10.83;4.77;;;17.20;87.40;;;;;;5083664;28;20210;-71
2021/05/11 01:14:43;;;;;;;6.97;4.07;;;17.20;87.40;;;;;;5081582;28;20244;-71
2021/05/11 01:17:18;;;;;;;10.60;4.47;;;17.20;87.30;;;;;;5082188;28;20218;-71
2021/05/11 01:19:52;;;;;;;12.00;4.27;;;17.30;87.30;;;;;;5079754;28;20213;-71
2021/05/11 01:24:58;;;;;;;12.80;3.67;;;17.30;87.20;;;;;;5089579;28;20270;-71
2021/05/11 01:54:08;;;;;;;11.40;4.20;;;17.40;85.40;;;;;;5089692;28;20237;-71
2021/05/11 02:23:55;;;;;;;11.07;4.20;;;17.40;85.00;;;;;;5081080;28;20201;-71
2021/05/11 02:26:22;;;;;;;5.77;4.00;;;17.40;85.10;;;;;;5083725;28;20319;-71
2021/05/11 02:28:48;;;;;;;10.83;4.00;;;17.40;85.20;;;;;;5081136;28;20651;-71
2021/05/11 02:31:15;;;;;;;9.97;4.60;;;17.40;85.30;;;;;;5082730;28;20296;-71
2021/05/11 02:33:42;;;;;;;6.37;4.47;;;17.40;85.40;;;;;;5083822;28;20234;-71
2021/05/11 02:36:09;;;;;;;9.00;4.27;;;17.30;85.40;;;;;;5086721;28;20237;-71
2021/05/11 02:38:36;;;;;;;10.73;4.67;;;17.30;85.40;;;;;;5084789;28;20283;-71
2021/05/11 02:41:02;;;;;;;9.47;4.57;;;17.30;85.50;;;;;;5085575;28;20209;-71
2021/05/11 02:43:34;;;;;;;13.00;4.60;;;17.30;85.60;;;;;;5084382;28;20525;-71
2021/05/11 02:46:00;;;;;;;9.00;4.40;;;17.30;85.70;;;;;;5083196;28;20676;-71
2021/05/11 02:48:27;;;;;;;7.60;3.77;;;17.20;85.70;;;;;;5083239;28;20638;-71
2021/05/11 02:50:54;;;;;;;7.47;4.07;;;17.20;85.70;;;;;;5085586;28;20270;-71
2021/05/11 02:53:20;;;;;;;10.10;3.70;;;17.20;85.80;;;;;;5084646;28;20646;-71
2021/05/11 02:55:47;;;;;;;4.90;3.37;;;17.20;85.80;;;;;;5086991;28;20229;-71
2021/05/11 02:58:15;;;;;;;8.37;4.17;;;17.20;85.40;;;;;;5087684;28;20208;-71
2021/05/11 03:00:42;;;;;;;10.17;3.20;;;17.20;85.30;;;;;;5085790;28;20224;-71
2021/05/11 03:03:09;;;;;;;12.80;3.73;;;17.20;85.20;;;;;;5086501;28;20644;-71
2021/05/11 03:05:36;;;;;;;8.60;3.10;;;17.20;85.10;;;;;;5085449;28;20223;-69
2021/05/11 03:08:03;;;;;;;8.83;3.27;;;17.20;85.20;;;;;;5083882;28;20213;-69
2021/05/11 03:10:29;;;;;;;8.70;3.93;;;17.20;85.20;;;;;;5084979;28;20220;-69
2021/05/11 03:12:56;;;;;;;6.97;3.27;;;17.20;85.30;;;;;;5085565;28;20220;-69
2021/05/11 03:15:23;;;;;;;9.07;3.37;;;17.20;85.20;;;;;;5085429;28;20249;-69
2021/05/11 03:17:49;;;;;;;10.67;3.53;;;17.10;85.30;;;;;;5086996;28;20221;-69
2021/05/11 03:20:16;;;;;;;14.40;3.90;;;17.10;85.40;;;;;;5083695;28;21283;-69
2021/05/11 03:22:43;;;;;;;11.13;3.80;;;17.10;85.40;;;;;;5083929;28;20709;-69
2021/05/11 03:25:10;;;;;;;8.03;3.43;;;17.10;85.40;;;;;;5085223;28;20271;-69
2021/05/11 03:27:37;;;;;;;7.27;3.37;;;17.10;85.50;;;;;;5085800;28;20243;-69
2021/05/11 03:30:05;;;;;;;4.57;3.13;;;17.10;85.50;;;;;;5084743;28;20597;-69
2021/05/11 03:32:32;;;;;;;15.67;4.10;;;17.10;85.60;;;;;;5085885;28;20224;-69
2021/05/11 03:34:59;;;;;;;9.60;4.13;;;17.10;85.60;;;;;;5084822;28;20294;-69
2021/05/11 03:37:26;;;;;;;7.50;3.73;;;17.10;85.70;;;;;;5081894;28;20213;-69
2021/05/11 03:39:52;;;;;;;9.30;3.60;;;17.10;85.90;;;;;;5084828;28;20209;-69
2021/05/11 03:42:27;;;;;;;9.03;4.47;;;17.10;86.10;;;;;;5084311;28;20206;-69
2021/05/11 03:44:57;;;;;;;9.63;3.97;;;17.10;86.30;;;;;;5083908;28;20276;-69
2021/05/11 03:47:25;;;;;;;11.60;4.20;;;17.10;86.40;;;;;;5085525;28;20523;-69
2021/05/11 03:49:52;;;;;;;9.30;4.10;;;17.10;86.60;;;;;;5083222;28;20305;-69
2021/05/11 03:52:19;;;;;;;12.73;4.27;;;17.10;86.60;;;;;;5085626;28;20213;-69
2021/05/11 03:54:47;;;;;;;9.07;4.27;;;17.20;86.60;;;;;;5084758;28;20848;-69
2021/05/11 03:57:14;;;;;;;9.90;4.23;;;17.20;86.60;;;;;;5085112;28;20209;-69
2021/05/11 03:59:41;;;;;;;7.57;3.50;;;17.20;86.50;;;;;;5083937;28;20232;-69
2021/05/11 04:02:08;;;;;;;10.10;4.57;;;17.20;86.40;;;;;;5085280;28;20474;-69
2021/05/11 04:04:35;;;;;;;10.27;4.00;;;17.20;86.40;;;;;;5083523;28;20217;-69
2021/05/11 04:07:05;;;;;;;9.33;4.47;;;17.20;86.40;;;;;;5082899;28;20217;-69
2021/05/11 04:09:37;;;;;;;10.47;4.23;;;17.20;86.40;;;;;;5085352;28;20685;-69
2021/05/11 04:17:40;;;;;;;9.83;4.47;;;17.20;86.50;;;;;;5079564;28;20217;-70
2021/05/11 04:20:08;;;;;;;14.10;5.27;;;17.20;86.60;;;;;;5083636;28;20210;-70
2021/05/11 04:22:35;;;;;;;13.00;5.23;;;17.10;86.70;;;;;;5085057;28;20213;-70
2021/05/11 04:25:02;;;;;;;10.63;4.73;;;17.10;86.80;;;;;;5083237;28;20237;-69
2021/05/11 04:27:29;;;;;;;7.17;4.37;;;17.10;86.90;;;;;;5084974;28;20228;-69
2021/05/11 04:30:03;;;;;;;10.93;4.43;;;17.10;87.10;;;;;;5082534;28;20555;-69
2021/05/11 04:32:30;;;;;;;19.03;5.13;;;17.10;87.00;;;;;;5086538;28;20225;-69
2021/05/11 04:34:57;;;;;;;13.33;4.90;;;17.20;87.10;;;;;;5084411;28;20696;-69
2021/05/11 04:37:25;;;;;;;14.60;4.80;;;17.20;87.20;;;;;;5081459;28;20279;-69
2021/05/11 04:39:53;;;;;;;16.37;5.27;;;17.20;88.00;;;;;;5079142;28;20254;-69
2021/05/11 04:42:20;;;;;;;8.87;4.77;;;17.20;87.40;;;;;;5084276;28;20264;-69
2021/05/11 04:44:49;;;;;;;11.63;5.30;;;17.20;87.70;;;;;;5083709;28;20213;-71
2021/05/11 04:47:29;;;;;;;8.10;5.17;;;17.20;87.90;;;;;;5083968;28;20235;-71
2021/05/11 04:49:58;;;;;;;11.67;5.37;;;17.20;88.00;;;;;;5077927;28;20850;-71
2021/05/11 04:52:25;;;;;;;9.57;4.97;;;17.10;88.10;;;;;;5078139;28;20206;-70
2021/05/11 04:54:52;;;;;;;11.10;5.87;;;17.10;88.40;;;;;;5084588;28;20727;-70
2021/05/11 04:57:20;;;;;;;7.90;5.23;;;17.00;88.70;;;;;;5085048;28;20211;-70
2021/05/11 04:59:47;;;;;;;6.50;4.57;;;17.00;89.10;;;;;;5081537;28;20217;-70
2021/05/11 05:02:15;;;;;;;16.40;6.37;;;16.90;89.40;;;;;;5085352;28;20241;-70
2021/05/11 05:04:42;;;;;;;11.67;5.50;;;16.90;89.90;;;;;;5080849;28;20236;-70
2021/05/11 05:07:10;;;;;;;10.07;5.30;;;16.90;90.10;;;;;;5081302;28;20263;-70
2021/05/11 05:09:37;;;;;;;8.90;5.83;;;16.80;90.20;;;;;;5082699;28;20371;-70
2021/05/11 05:12:04;;;;;;;19.20;6.53;;;16.80;90.30;;;;;;5081821;28;20217;-70
2021/05/11 05:14:32;;;;;;;15.77;5.87;;;16.80;90.40;;;;;;5085554;28;20219;-70
2021/05/11 05:16:59;;;;;;;10.23;6.00;;;16.80;90.40;;;;;;5080932;28;20210;-70
2021/05/11 05:19:26;;;;;;;10.23;6.27;;;16.80;90.40;;;;;;5085275;28;20296;-70
2021/05/11 05:21:53;;;;;;;11.10;5.67;;;16.80;90.50;;;;;;5084686;28;20646;-70
2021/05/11 05:24:33;;;;;;;9.47;5.77;;;16.80;90.60;;;;;;5085331;28;20259;-70
2021/05/11 05:27:11;;;;;;;7.73;5.90;;;16.80;90.60;;;;;;5081126;28;20225;-70
2021/05/11 05:29:38;;;;;;;11.70;5.20;;;16.80;90.60;;;;;;5080902;28;20248;-70
2021/05/11 05:32:06;;;;;;;11.10;5.80;;;16.80;90.70;;;;;;5083817;28;20493;-70
2021/05/11 05:34:33;;;;;;;9.27;6.03;;;16.90;90.80;;;;;;5080462;28;20217;-70
2021/05/11 05:37:02;;;;;;;11.20;6.47;;;16.80;90.90;;;;;;5079949;28;20206;-71
2021/05/11 05:39:36;;;;;;;16.67;6.70;;;16.80;91.10;;;;;;5083792;28;20292;-71
2021/05/11 05:42:04;;;;;;;11.07;6.47;;;16.80;91.10;;;;;;5077403;28;20217;-71
2021/05/11 05:44:32;;;;;;;16.57;6.20;;;16.80;91.20;;;;;;5082737;28;20209;-71
2021/05/11 05:47:00;;;;;;;15.40;6.97;;;16.80;91.20;;;;;;5081001;28;20213;-71
2021/05/11 05:49:47;;;;;;;12.27;6.03;;;16.80;91.20;;;;;;5085674;28;20209;-71
2021/05/11 05:52:21;;;;;;;21.00;6.37;;;16.80;91.60;;;;;;5082651;28;20645;-71
2021/05/11 05:54:49;;;;;;;19.20;6.83;;;16.80;91.30;;;;;;5076968;28;20225;-72
2021/05/11 05:57:16;;;;;;;14.57;6.50;;;16.80;91.30;;;;;;5083169;28;20213;-72
2021/05/11 05:59:43;;;;;;;10.13;6.23;;;16.70;91.40;;;;;;5079149;28;20206;-72
2021/05/11 06:02:22;;;;;;;12.20;6.77;;;16.80;91.50;;;;;;5083937;28;20216;-71
2021/05/11 06:04:49;;;;;;;12.87;5.87;;;16.70;91.50;;;;;;5081040;28;20216;-71
2021/05/11 06:07:17;;;;;;;13.20;6.90;;;16.80;91.50;;;;;;5079366;28;20213;-71
2021/05/11 06:09:44;;;;;;;12.57;6.27;;;16.80;91.60;;;;;;5081152;28;20212;-71
2021/05/11 06:12:29;;;;;;;14.97;6.80;;;16.80;91.60;;;;;;5080764;28;20270;-71
2021/05/11 06:17:29;;;;;;;16.83;7.87;;;16.80;91.60;;;;;;5077822;28;20209;-70
2021/05/11 06:19:56;;;;;;;11.47;6.87;;;16.80;91.60;;;;;;5081855;28;20209;-70
2021/05/11 06:22:23;;;;;;;12.13;6.50;;;16.80;91.60;;;;;;5083939;28;20201;-70
2021/05/11 06:24:51;;;;;;;15.90;8.30;;;16.80;91.60;;;;;;5080578;28;20209;-70
2021/05/11 06:27:19;;;;;;;13.90;8.30;;;16.80;91.60;;;;;;5082867;28;20239;-70
2021/05/11 06:29:47;;;;;;;16.17;7.33;;;16.80;91.70;;;;;;5080568;28;20229;-70
2021/05/11 06:32:15;;;;;;;11.87;6.77;;;16.70;91.80;;;;;;5082691;28;20223;-70
2021/05/11 06:34:46;;;;;;;14.10;7.00;;;16.70;91.80;;;;;;5079955;28;20213;-70
2021/05/11 06:37:13;;;;;;;13.53;6.80;;;16.70;91.80;;;;;;5079558;28;20218;-70
2021/05/11 06:39:45;;;;;;;9.43;6.70;;;16.70;91.80;;;;;;5082232;28;20217;-70
2021/05/11 06:42:12;;;;;;;12.73;7.70;;;16.70;91.90;;;;;;5081093;28;20213;-70
2021/05/11 06:54:52;;;;;;;18.07;8.87;;;16.80;92.30;;;;;;5078373;28;20213;-70
2021/05/11 06:57:20;;;;;;;15.13;8.70;;;16.90;92.40;;;;;;5079109;28;20257;-70
2021/05/11 06:59:47;;;;;;;16.73;8.53;;;16.90;92.50;;;;;;5082305;28;20256;-69
2021/05/11 07:02:14;;;;;;;17.73;8.43;;;16.90;92.60;;;;;;5081125;28;20221;-69
2021/05/11 07:04:43;;;;;;;16.53;8.67;;;16.90;92.60;;;;;;5081818;28;20633;-69
2021/05/11 07:07:13;;;;;;;15.83;8.70;;;16.90;92.70;;;;;;5079746;28;20244;-69
2021/05/11 07:15:03;;;;;;;20.13;9.27;;;17.00;92.90;;;;;;5078684;28;20237;-69
2021/05/11 07:17:30;;;;;;;17.53;9.63;;;17.00;93.00;;;;;;5082484;28;20252;-69
2021/05/11 07:19:57;;;;;;;15.93;10.60;;;17.00;93.00;;;;;;5086517;28;20209;-69
2021/05/11 07:22:25;;;;;;;13.97;8.53;;;17.00;93.10;;;;;;5086576;28;20573;-69
2021/05/11 07:24:55;;;;;;;15.87;10.93;;;17.10;93.10;;;;;;5083403;28;20213;-70
2021/05/11 07:30:08;;;;;;;19.03;9.70;;;17.10;93.20;;;;;;5082404;28;20209;-70
2021/05/11 07:32:37;;;;;;;15.17;9.37;;;17.10;93.20;;;;;;5080352;28;20209;-70
2021/05/11 07:35:06;;;;;;;17.03;10.73;;;17.00;93.20;;;;;;5086138;28;20220;-70
2021/05/11 07:37:33;;;;;;;15.97;9.37;;;17.00;93.30;;;;;;5082219;28;20460;-70
2021/05/11 07:40:01;;;;;;;11.33;9.20;;;16.90;93.30;;;;;;5083608;28;20214;-70
2021/05/11 07:42:30;;;;;;;14.17;9.03;;;17.00;93.30;;;;;;5085500;28;20549;-70
2021/05/11 07:45:00;;;;;;;15.57;8.03;;;17.00;93.30;;;;;;5084001;28;20213;-70
2021/05/11 08:04:39;;;;;;;6.13;4.80;;;17.30;92.10;;;;;;5085695;28;20228;-70
2021/05/11 08:17:32;;;;;;;6.00;4.57;;;17.60;91.40;;;;;;5084114;28;20240;-70
2021/05/11 08:28:39;;;;;;;5.93;4.47;;;17.70;90.30;;;;;;5080077;28;20606;-70
2021/05/11 08:31:07;;;;;;;6.13;3.90;;;17.70;90.40;;;;;;5081309;28;20209;-70
2021/05/11 08:33:34;;;;;;;7.97;4.10;;;17.70;90.40;;;;;;5081859;28;20209;-70
2021/05/11 08:36:03;;;;;;;3.77;3.27;;;17.70;90.40;;;;;;5083624;28;20737;-70
2021/05/11 08:38:30;;;;;;;4.70;3.83;;;17.70;90.40;;;;;;5081407;28;20648;-70
2021/05/11 08:40:58;;;;;;;7.00;4.07;;;17.70;90.50;;;;;;5084657;28;20213;-69
2021/05/11 08:43:34;;;;;;;4.60;3.90;;;17.70;90.30;;;;;;5083044;28;20675;-69
2021/05/11 08:46:06;;;;;;;6.20;3.87;;;17.80;90.60;;;;;;5083088;28;20288;-69
2021/05/11 08:48:34;;;;;;;8.27;4.43;;;17.80;90.30;;;;;;5085838;28;20583;-69
2021/05/11 08:51:21;;;;;;;7.07;5.00;;;17.80;90.30;;;;;;5082374;28;20223;-69
2021/05/11 10:37:49;;;;;;;8.63;6.77;;;19.20;79.70;;;;;;5078065;28;20260;-70
2021/05/11 10:48:19;;;;;;;10.97;7.53;;;19.40;80.50;;;;;;5079453;28;20308;-69
2021/05/11 10:50:52;;;;;;;8.13;6.43;;;19.40;80.10;;;;;;5081327;28;20310;-69
2021/05/11 10:54:00;;;;;;;9.70;6.77;;;19.40;79.30;;;;;;5082948;28;20959;-70
2021/05/11 11:05:04;;;;;;;16.77;9.60;;;19.10;80.90;;;;;;5063420;28;20214;-70
2021/05/11 11:07:33;;;;;;;13.57;9.53;;;19.00;82.60;;;;;;5062263;28;20217;-69
2021/05/11 11:10:01;;;;;;;13.80;9.90;;;18.90;82.90;;;;;;5070951;28;20224;-70
2021/05/11 11:12:35;;;;;;;10.27;9.17;;;18.90;83.60;;;;;;5084388;28;20278;-69
2021/05/11 11:15:21;;;;;;;13.47;10.43;;;18.80;84.20;;;;;;5079651;28;20293;-69
2021/05/11 11:17:52;;;;;;;12.43;9.80;;;18.80;85.30;;;;;;5084503;28;20623;-69
2021/05/11 11:20:33;;;;;;;16.20;11.13;;;18.70;85.60;;;;;;5081179;28;20256;-69
2021/05/11 11:26:09;;;;;;;14.87;11.73;;;18.70;86.50;;;;;;5083194;28;20202;-69
2021/05/11 11:28:37;;;;;;;13.47;12.07;;;18.70;87.00;;;;;;5084041;28;20214;-69
2021/05/11 11:31:22;;;;;;;11.70;9.93;;;18.70;87.30;;;;;;5084149;28;20571;-69
2021/05/11 11:33:49;;;;;;;16.70;11.67;;;18.70;86.80;;;;;;5080759;28;20768;-70
2021/05/11 11:36:30;;;;;;;16.37;10.90;;;18.80;87.10;;;;;;5082798;28;20735;-70
2021/05/11 11:39:03;;;;;;;11.80;10.47;;;18.70;87.40;;;;;;5083485;28;20214;-70
2021/05/11 11:41:30;;;;;;;20.07;11.43;;;18.70;87.40;;;;;;5086345;28;20661;-70
2021/05/11 11:43:57;;;;;;;12.77;10.70;;;18.80;87.20;;;;;;5082128;28;20206;-70
2021/05/11 11:46:29;;;;;;;13.47;11.20;;;18.90;87.40;;;;;;5076500;28;20608;-70
2021/05/11 11:49:09;;;;;;;17.10;10.77;;;19.00;87.30;;;;;;5073806;28;20205;-69
2021/05/11 11:51:37;;;;;;;15.00;10.70;;;19.00;86.70;;;;;;5074967;28;20547;-69
2021/05/11 11:54:18;;;;;;;16.43;11.37;;;19.10;86.80;;;;;;5077176;28;20239;-69
2021/05/11 11:59:31;;;;;;;19.03;11.67;;;19.20;86.20;;;;;;5082892;28;20292;-69
2021/05/11 12:02:01;;;;;;;13.40;11.67;;;19.20;86.20;;;;;;5084107;28;20213;-69
2021/05/11 12:04:30;;;;;;;14.27;12.17;;;19.20;86.40;;;;;;5084622;28;20517;-69
2021/05/11 12:07:04;;;;;;;16.47;12.07;;;19.20;87.30;;;;;;5080991;28;20217;-69
2021/05/11 12:09:32;;;;;;;14.73;12.67;;;19.20;86.80;;;;;;5086009;28;20212;-70
2021/05/11 12:12:01;;;;;;;15.63;11.97;;;19.20;86.80;;;;;;5081114;28;20692;-70
2021/05/11 12:14:29;;;;;;;23.07;13.03;;;19.20;87.20;;;;;;5078521;28;20596;-70
2021/05/11 12:16:56;;;;;;;15.70;12.07;;;19.20;87.60;;;;;;5078106;28;20233;-69
2021/05/11 12:19:27;;;;;;;18.33;12.23;;;19.10;88.30;;;;;;5073752;28;20214;-70
2021/05/11 12:22:05;;;;;;;17.67;13.67;;;19.20;88.50;;;;;;5080273;28;20348;-69
2021/05/11 12:24:39;;;;;;;16.03;14.20;;;19.20;88.90;;;;;;5083065;28;20316;-70
2021/05/11 12:27:24;;;;;;;17.67;13.57;;;19.20;89.20;;;;;;5085031;28;20213;-69
2021/05/11 12:30:12;;;;;;;19.20;13.90;;;19.10;89.00;;;;;;5080477;28;20220;-70
2021/05/11 12:32:39;;;;;;;18.00;13.27;;;19.00;89.60;;;;;;5077035;28;20249;-68
2021/05/11 12:35:08;;;;;;;19.17;14.87;;;19.00;90.10;;;;;;5077780;28;20225;-70
2021/05/11 12:37:54;;;;;;;16.13;13.97;;;18.90;90.50;;;;;;5079812;28;20229;-69
2021/05/11 12:43:02;;;;;;;17.60;14.97;;;18.90;90.60;;;;;;5081985;28;20282;-69
2021/05/11 12:45:35;;;;;;;20.53;15.27;;;18.90;90.60;;;;;;5078657;28;20214;-70
2021/05/11 12:48:09;;;;;;;16.93;14.77;;;18.90;90.70;;;;;;5084087;28;20213;-70
2021/05/11 12:50:40;;;;;;;18.57;14.03;;;19.00;90.70;;;;;;5085265;28;20220;-68
2021/05/11 12:53:41;;;;;;;21.90;15.40;;;19.00;90.60;;;;;;5083977;28;20531;-71
2021/05/11 12:59:59;;;;;;;18.87;15.00;;;19.00;90.40;;;;;;5083629;28;20704;-70
2021/05/11 13:02:44;;;;;;;20.70;15.50;;;19.00;90.30;;;;;;5081547;28;20217;-70
2021/05/11 13:20:05;;;;;;;18.67;15.40;;;19.00;90.60;;;;;;5010725;28;20523;-71
2021/05/11 13:25:14;;;;;;;23.30;16.47;;;19.00;90.80;;;;;;5059743;28;20208;-71
2021/05/11 13:30:27;;;;;;;20.07;17.67;;;19.00;90.80;;;;;;5085378;28;20237;-70
2021/05/11 13:35:34;;;;;;;24.30;18.23;;;19.10;91.20;;;;;;5079168;28;20210;-71
2021/05/11 13:38:02;;;;;;;23.87;18.47;;;19.10;91.00;;;;;;5085425;28;20240;-71
2021/05/11 13:40:30;;;;;;;21.80;18.13;;;19.10;91.00;;;;;;5079581;28;20219;-71
2021/05/11 13:42:58;;;;;;;27.70;18.13;;;19.20;91.10;;;;;;5085170;28;20205;-71
2021/05/11 13:45:26;;;;;;;24.73;19.03;;;19.20;91.10;;;;;;5082721;28;20839;-71
2021/05/11 13:48:05;;;;;;;22.30;18.20;;;19.20;91.10;;;;;;5086490;28;20216;-72
2021/05/11 13:53:21;;;;;;;23.80;18.83;;;19.20;91.20;;;;;;5078018;28;20232;-71
2021/05/11 13:56:00;;;;;;;28.13;18.73;;;19.20;91.20;;;;;;5082320;28;20220;-71
2021/05/11 14:03:57;;;;;;;23.47;19.67;;;19.30;91.40;;;;;;5080914;28;20210;-72
2021/05/11 14:06:25;;;;;;;27.57;20.73;;;19.30;91.40;;;;;;5084599;28;20237;-72
2021/05/11 14:08:53;;;;;;;25.60;19.77;;;19.30;91.30;;;;;;5082734;28;20638;-71
2021/05/11 14:11:21;;;;;;;28.03;21.10;;;19.30;91.30;;;;;;5080143;28;20221;-71
2021/05/11 14:13:48;;;;;;;32.30;22.30;;;19.40;91.40;;;;;;5083047;28;20566;-71
2021/05/11 14:16:15;;;;;;;27.37;22.00;;;19.30;91.40;;;;;;5079152;28;20217;-70
2021/05/11 14:18:43;;;;;;;33.93;22.97;;;19.30;91.50;;;;;;5082377;28;20233;-70
2021/05/11 14:21:10;;;;;;;29.40;22.57;;;19.30;91.60;;;;;;5079819;28;20265;-70
2021/05/11 14:23:37;;;;;;;28.73;22.67;;;19.30;91.60;;;;;;5084072;28;20218;-70
2021/05/11 14:26:05;;;;;;;28.80;23.67;;;19.30;91.60;;;;;;5082938;28;20720;-71
2021/05/11 14:28:32;;;;;;;28.80;23.83;;;19.30;91.70;;;;;;5084094;28;20224;-71
2021/05/11 14:30:59;;;;;;;28.13;23.13;;;19.30;91.90;;;;;;5090854;28;20216;-71
2021/05/11 14:33:27;;;;;;;35.20;25.77;;;19.20;92.00;;;;;;5086137;28;20210;-70
2021/05/11 14:35:54;;;;;;;30.20;25.00;;;19.20;92.10;;;;;;5086186;28;20213;-70
2021/05/11 14:38:21;;;;;;;36.03;24.77;;;19.20;92.20;;;;;;5089325;28;20241;-70
2021/05/11 14:40:48;;;;;;;34.50;26.57;;;19.20;92.30;;;;;;5085923;28;20385;-70
2021/05/11 14:43:16;;;;;;;35.73;26.73;;;19.10;92.40;;;;;;5087405;28;20290;-70
2021/05/11 14:45:43;;;;;;;34.43;26.33;;;19.20;92.50;;;;;;5088177;28;20228;-70
2021/05/11 14:48:10;;;;;;;35.17;25.33;;;19.20;92.50;;;;;;5089921;28;20209;-70
2021/05/11 14:50:38;;;;;;;26.50;23.17;;;19.30;92.60;;;;;;5089975;28;20277;-70
2021/05/11 14:53:05;;;;;;;28.83;23.30;;;19.40;92.50;;;;;;5087085;28;20221;-71
2021/05/11 14:55:32;;;;;;;33.07;23.40;;;19.40;92.50;;;;;;5090611;28;20629;-70
2021/05/11 14:57:59;;;;;;;28.97;22.57;;;19.40;92.30;;;;;;5086867;28;20638;-70
2021/05/11 15:00:27;;;;;;;33.10;22.83;;;19.50;92.30;;;;;;5090267;28;20274;-71
2021/05/11 15:02:54;;;;;;;28.10;21.53;;;19.50;92.30;;;;;;5086621;28;20213;-71
2021/05/11 15:05:22;;;;;;;23.20;19.43;;;19.50;92.30;;;;;;5090756;28;20221;-71
2021/05/11 15:07:49;;;;;;;22.30;18.03;;;19.50;92.20;;;;;;5088266;28;20217;-71
2021/05/11 15:10:17;;;;;;;24.97;17.27;;;19.50;92.10;;;;;;5085656;28;20212;-71
2021/05/11 15:12:45;;;;;;;17.33;14.07;;;19.50;92.00;;;;;;5086973;28;20220;-70
2021/05/11 15:15:20;;;;;;;13.13;11.73;;;19.40;91.90;;;;;;5089418;28;20225;-69
2021/05/11 15:20:16;;;;;;;17.90;13.30;;;19.40;91.90;;;;;;5088978;28;20241;-71
2021/05/11 15:23:03;;;;;;;17.47;12.10;;;19.30;91.60;;;;;;5094268;28;20205;-71
2021/05/11 15:25:31;;;;;;;14.67;9.47;;;19.30;91.60;;;;;;5091470;28;20241;-71
2021/05/11 15:28:01;;;;;;;11.63;6.73;;;19.20;91.60;;;;;;5091263;28;20217;-71
2021/05/11 15:30:29;;;;;;;6.03;4.97;;;19.20;91.40;;;;;;5082116;28;20282;-70
2021/05/11 15:32:57;;;;;;;7.83;5.33;;;19.20;91.10;;;;;;5096244;28;20226;-71
2021/05/11 15:35:33;;;;;;;8.90;4.93;;;19.10;90.90;;;;;;5089263;28;20274;-70
2021/05/11 15:38:02;;;;;;;6.43;4.27;;;19.10;90.90;;;;;;5087626;28;20240;-71
2021/05/11 15:40:33;;;;;;;9.70;5.20;;;19.00;90.80;;;;;;5082462;28;20198;-70
2021/05/11 15:43:01;;;;;;;7.93;5.40;;;19.00;90.80;;;;;;5085777;28;20212;-71
2021/05/11 15:45:28;;;;;;;9.33;5.97;;;18.90;90.80;;;;;;5086111;28;20209;-71
2021/05/11 15:47:56;;;;;;;10.13;6.40;;;18.90;90.90;;;;;;5085440;28;20221;-71
2021/05/11 15:50:35;;;;;;;11.17;6.30;;;18.90;91.00;;;;;;5084562;28;20818;-71
2021/05/11 15:53:05;;;;;;;8.90;6.50;;;18.90;91.00;;;;;;5078657;28;20642;-71
2021/05/11 15:55:34;;;;;;;12.97;5.53;;;18.90;91.00;;;;;;5079634;28;20225;-71
2021/05/11 15:58:02;;;;;;;4.93;4.27;;;18.90;91.00;;;;;;5082479;28;20237;-71
2021/05/11 16:00:30;;;;;;;4.50;4.10;;;18.90;90.90;;;;;;5086970;28;20573;-72
2021/05/11 16:03:03;;;;;;;9.83;4.07;;;18.90;90.70;;;;;;5078961;28;20209;-71
2021/05/11 16:05:35;;;;;;;5.70;4.47;;;18.80;90.80;;;;;;5083361;28;20225;-72
2021/05/11 16:08:07;;;;;;;5.37;3.97;;;18.80;90.90;;;;;;5084137;28;20251;-72
2021/05/11 16:10:35;;;;;;;4.67;3.53;;;18.80;90.90;;;;;;5080065;28;20233;-71
2021/05/11 16:13:03;;;;;;;8.40;3.90;;;18.80;90.90;;;;;;5083728;28;20303;-71
2021/05/11 16:15:30;;;;;;;4.67;3.20;;;18.70;91.00;;;;;;5083651;28;20240;-71
2021/05/11 16:17:58;;;;;;;5.97;3.30;;;18.70;91.10;;;;;;5084504;28;20286;-71
2021/05/11 16:20:26;;;;;;;4.57;3.17;;;18.70;91.20;;;;;;5083793;28;20315;-71
2021/05/11 16:22:54;;;;;;;4.63;3.00;;;18.70;91.30;;;;;;5086573;28;20236;-71
2021/05/11 16:25:23;;;;;;;4.50;3.27;;;18.70;91.40;;;;;;5086065;28;20258;-71
2021/05/11 16:27:51;;;;;;;3.63;3.33;;;18.70;91.40;;;;;;5083031;28;20656;-71
2021/05/11 16:30:20;;;;;;;6.40;4.00;;;18.60;91.40;;;;;;5085528;28;20216;-71
2021/05/11 16:32:47;;;;;;;3.60;3.30;;;18.60;91.50;;;;;;5083359;28;20218;-71
2021/05/11 16:35:17;;;;;;;2.53;2.20;;;18.60;91.50;;;;;;5085945;28;20587;-72
2021/05/11 16:37:44;;;;;;;2.90;1.90;;;18.40;91.10;;;;;;5081571;28;20657;-71
2021/05/11 16:40:13;;;;;;;4.70;1.83;;;18.30;90.30;;;;;;5078349;28;20299;-71
2021/05/11 16:42:42;;;;;;;3.83;1.67;;;18.10;90.10;;;;;;5081744;28;20243;-71
2021/05/11 16:45:12;;;;;;;1.70;1.20;;;17.90;90.10;;;;;;5078609;28;20214;-71
2021/05/11 16:47:57;;;;;;;1.60;1.03;;;17.70;89.80;;;;;;5084355;28;20553;-71
2021/05/11 16:50:33;;;;;;;1.47;1.20;;;17.50;90.00;;;;;;5084010;28;20205;-71
2021/05/11 16:53:03;;;;;;;1.77;1.40;;;17.40;90.20;;;;;;5077338;28;20209;-71
2021/05/11 16:55:31;;;;;;;4.00;1.40;;;17.30;90.50;;;;;;5085198;28;20270;-71
2021/05/11 16:57:59;;;;;;;2.73;1.30;;;17.20;90.60;;;;;;5082355;28;20240;-71
2021/05/11 17:00:28;;;;;;;5.23;1.50;;;17.10;90.70;;;;;;5084575;28;20632;-71
2021/05/11 17:02:56;;;;;;;2.97;1.50;;;17.00;90.80;;;;;;5082733;28;20279;-71
2021/05/11 17:05:23;;;;;;;4.07;1.70;;;17.00;90.90;;;;;;5084868;28;20213;-71
2021/05/11 17:07:51;;;;;;;3.63;1.37;;;16.90;90.80;;;;;;5085639;28;20208;-71
2021/05/11 17:10:19;;;;;;;1.67;1.30;;;16.90;90.70;;;;;;5081048;28;20217;-71
2021/05/11 17:12:48;;;;;;;1.87;1.43;;;16.90;90.80;;;;;;5083289;28;20687;-71
2021/05/11 17:15:17;;;;;;;2.07;1.40;;;16.80;90.90;;;;;;5084763;28;20274;-71
2021/05/11 17:17:46;;;;;;;3.13;2.30;;;16.80;90.90;;;;;;5079069;28;20548;-71
2021/05/11 17:20:16;;;;;;;5.40;2.87;;;16.70;91.00;;;;;;5081556;28;20703;-71
2021/05/11 17:22:43;;;;;;;3.53;3.23;;;16.70;91.10;;;;;;5084289;28;20209;-71
2021/05/11 17:25:11;;;;;;;9.87;5.53;;;16.70;91.30;;;;;;5086464;28;20202;-71
2021/05/11 17:27:40;;;;;;;8.97;5.33;;;16.70;91.30;;;;;;5081139;28;20210;-71
2021/05/11 17:30:08;;;;;;;7.93;4.80;;;16.70;91.40;;;;;;5086578;28;20213;-71
2021/05/11 17:32:36;;;;;;;5.50;3.80;;;16.70;91.50;;;;;;5082586;28;20426;-72
2021/05/11 17:35:05;;;;;;;5.37;3.43;;;16.70;91.60;;;;;;5086990;28;20194;-71